createdAt,value
2019-04-22T00:00:42.033Z,90.70
2019-04-22T00:03:14.523Z,91.20
2019-04-22T00:06:00.921Z,91.70
2019-04-22T00:08:35.716Z,91.60
2019-04-22T00:11:12.566Z,92.30
2019-04-22T00:13:40.700Z,91.90
2019-04-22T00:16:07.174Z,91.90
2019-04-22T00:18:56.284Z,92.50
2019-04-22T00:21:12.534Z,93.70
2019-04-22T00:23:39.425Z,93.90
2019-04-22T00:26:08.689Z,93.30
2019-04-22T00:28:44.067Z,93.10
2019-04-22T00:31:20.992Z,93.80
2019-04-22T00:33:52.329Z,93.70
2019-04-22T00:36:24.162Z,93.50
2019-04-22T00:38:58.788Z,94.70
2019-04-22T00:41:34.162Z,94.40
2019-04-22T00:43:59.650Z,94.30
2019-04-22T00:46:26.844Z,94.80
2019-04-22T00:49:20.408Z,94.50
2019-04-22T00:51:30.118Z,94.80
2019-04-22T00:53:54.315Z,94.90
2019-04-22T00:56:22.118Z,95.80
2019-04-22T00:58:50.302Z,95.20
2019-04-22T01:01:23.779Z,95.50
2019-04-22T01:04:04.274Z,95.80
2019-04-22T01:06:35.546Z,96.20
2019-04-22T01:11:45.342Z,97.30
2019-04-22T01:14:04.908Z,97.70
2019-04-22T01:16:40.798Z,97.80
2019-04-22T01:19:00.495Z,99.30
2019-04-22T01:21:40.856Z,99.90
2019-04-22T01:24:02.876Z,99.90
2019-04-22T01:26:33.114Z,99.90
2019-04-22T01:28:59.282Z,99.90
2019-04-22T01:31:20.474Z,99.90
2019-04-22T01:34:02.380Z,99.90
2019-04-22T01:36:38.755Z,99.90
2019-04-22T01:39:10.737Z,99.90
2019-04-22T01:41:48.991Z,99.90
2019-04-22T01:46:44.782Z,99.90
2019-04-22T01:49:14.877Z,99.90
2019-04-22T01:54:29.733Z,99.90
2019-04-22T01:56:55.787Z,99.90
2019-04-22T01:59:15.713Z,99.90
2019-04-22T02:04:26.938Z,99.90
2019-04-22T02:06:57.586Z,99.90
2019-04-22T02:09:31.132Z,99.90
2019-04-22T02:12:00.503Z,99.90
2019-04-22T02:14:35.305Z,99.90
2019-04-22T02:17:04.701Z,99.90
2019-04-22T02:19:31.037Z,99.90
2019-04-22T02:21:59.606Z,99.90
2019-04-22T02:24:33.860Z,99.90
2019-04-22T02:27:00.327Z,99.90
2019-04-22T02:29:36.847Z,99.90
2019-04-22T02:32:16.454Z,99.90
2019-04-22T02:34:40.297Z,99.90
2019-04-22T02:42:10.720Z,99.90
2019-04-22T02:44:37.710Z,99.90
2019-04-22T02:49:39.283Z,99.90
2019-04-22T02:52:18.114Z,99.90
2019-04-22T02:57:22.442Z,99.90
2019-04-22T02:59:46.972Z,99.90
2019-04-22T03:05:00.601Z,99.90
2019-04-22T03:07:10.683Z,99.90
2019-04-22T03:09:47.446Z,99.90
2019-04-22T03:12:21.554Z,99.90
2019-04-22T03:22:25.911Z,99.90
2019-04-22T03:25:29.813Z,99.90
2019-04-22T03:27:20.026Z,99.90
2019-04-22T03:30:41.931Z,99.90
2019-04-22T03:35:37.299Z,99.90
2019-04-22T03:37:49.142Z,99.90
2019-04-22T03:42:51.998Z,99.90
2019-04-22T03:50:22.682Z,99.90
2019-04-22T03:52:44.491Z,99.90
2019-04-22T03:55:18.076Z,99.90
2019-04-22T03:57:50.136Z,99.90
2019-04-22T04:00:30.285Z,99.90
2019-04-22T04:10:27.920Z,99.90
2019-04-22T04:15:27.894Z,99.90
2019-04-22T04:17:53.857Z,99.90
2019-04-22T04:23:05.726Z,99.90
2019-04-22T04:25:38.005Z,99.90
2019-04-22T04:28:24.328Z,99.90
2019-04-22T04:33:13.432Z,99.90
2019-04-22T04:35:44.173Z,99.90
2019-04-22T04:37:58.838Z,99.90
2019-04-22T04:43:08.210Z,99.90
2019-04-22T04:45:45.269Z,99.90
2019-04-22T04:48:18.471Z,99.90
2019-04-22T04:50:47.347Z,99.90
2019-04-22T04:56:01.933Z,99.90
2019-04-22T04:58:25.148Z,99.90
2019-04-22T05:03:20.627Z,99.90
2019-04-22T05:05:49.884Z,99.90
2019-04-22T05:08:35.356Z,99.90
2019-04-22T05:13:40.374Z,99.90
2019-04-22T05:15:59.745Z,99.90
2019-04-22T05:20:59.606Z,99.90
2019-04-22T05:23:25.755Z,99.90
2019-04-22T05:25:41.133Z,99.90
2019-04-22T05:28:15.113Z,99.90
2019-04-22T05:30:47.701Z,99.90
2019-04-22T05:33:16.773Z,99.90
2019-04-22T05:35:46.347Z,99.90
2019-04-22T05:40:40.890Z,99.90
2019-04-22T05:43:22.692Z,99.90
2019-04-22T05:45:51.187Z,99.90
2019-04-22T05:48:18.779Z,99.90
2019-04-22T05:50:54.561Z,99.90
2019-04-22T05:53:19.890Z,99.90
2019-04-22T05:58:25.852Z,99.90
2019-04-22T06:01:29.057Z,99.90
2019-04-22T06:03:42.484Z,99.90
2019-04-22T06:06:10.625Z,99.90
2019-04-22T06:08:44.432Z,99.90
2019-04-22T06:11:14.705Z,99.90
2019-04-22T06:13:31.913Z,99.90
2019-04-22T06:16:09.188Z,99.90
2019-04-22T06:18:55.120Z,99.90
2019-04-22T06:21:18.655Z,99.90
2019-04-22T06:23:54.671Z,99.90
2019-04-22T06:31:28.249Z,99.90
2019-04-22T06:33:56.425Z,99.90
2019-04-22T06:36:24.413Z,99.90
2019-04-22T06:38:46.232Z,99.90
2019-04-22T06:41:21.128Z,99.90
2019-04-22T06:43:57.863Z,99.90
2019-04-22T06:46:20.449Z,99.90
2019-04-22T06:48:55.182Z,99.90
2019-04-22T06:51:31.003Z,99.90
2019-04-22T06:53:55.699Z,99.90
2019-04-22T06:56:22.239Z,99.90
2019-04-22T06:59:11.911Z,99.90
2019-04-22T07:01:27.667Z,99.90
2019-04-22T07:03:56.960Z,99.90
2019-04-22T07:11:23.705Z,99.90
2019-04-22T07:14:01.110Z,99.90
2019-04-22T07:16:32.402Z,99.90
2019-04-22T07:19:01.825Z,99.90
2019-04-22T07:21:33.591Z,99.90
2019-04-22T07:24:23.663Z,99.90
2019-04-22T07:26:29.104Z,99.90
2019-04-22T07:29:01.479Z,99.20
2019-04-22T07:31:34.139Z,98.60
2019-04-22T07:34:08.149Z,97.50
2019-04-22T07:39:04.245Z,96.30
2019-04-22T07:41:38.416Z,95.90
2019-04-22T07:44:13.869Z,95.40
2019-04-22T07:46:43.073Z,95.20
2019-04-22T07:49:10.716Z,94.90
2019-04-22T07:51:46.684Z,94.10
2019-04-22T07:54:24.868Z,94.10
2019-04-22T07:56:54.897Z,93.70
2019-04-22T07:59:26.513Z,92.70
2019-04-22T08:02:02.097Z,92.20
2019-04-22T08:04:23.173Z,90.90
2019-04-22T08:06:52.699Z,91.10
2019-04-22T08:09:33.972Z,90.80
2019-04-22T08:12:02.065Z,90.90
2019-04-22T08:14:24.657Z,90.80
2019-04-22T08:16:51.817Z,89.50
2019-04-22T08:19:20.384Z,88.90
2019-04-22T08:21:52.110Z,86.50
2019-04-22T08:24:22.833Z,86.60
2019-04-22T08:26:53.251Z,84.20
2019-04-22T08:29:28.248Z,83.70
2019-04-22T08:31:54.786Z,83.80
2019-04-22T08:34:27.425Z,83.30
2019-04-22T08:37:25.590Z,82.40
2019-04-22T08:39:25.602Z,82.80
2019-04-22T08:41:51.714Z,79.20
2019-04-22T08:44:39.086Z,78.20
2019-04-22T08:47:08.680Z,77.90
2019-04-22T08:49:34.448Z,76.80
2019-04-22T08:52:03.879Z,77.30
2019-04-22T08:54:29.756Z,76.60
2019-04-22T08:57:07.199Z,75.00
2019-04-22T08:59:28.380Z,74.00
2019-04-22T09:02:09.340Z,71.40
2019-04-22T09:04:34.693Z,70.90
2019-04-22T09:07:16.634Z,68.20
2019-04-22T09:09:31.385Z,67.70
2019-04-22T09:14:37.811Z,61.50
2019-04-22T09:17:03.830Z,59.80
2019-04-22T09:19:35.223Z,59.60
2019-04-22T09:22:08.003Z,60.10
2019-04-22T09:24:35.639Z,57.80
2019-04-22T09:27:11.512Z,56.80
2019-04-22T09:29:39.792Z,57.00
2019-04-22T09:37:11.624Z,54.70
2019-04-22T09:39:41.486Z,53.40
2019-04-22T09:42:14.523Z,53.90
2019-04-22T09:44:45.347Z,53.00
2019-04-22T09:47:07.950Z,50.60
2019-04-22T09:49:46.866Z,49.90
2019-04-22T09:52:13.069Z,49.40
2019-04-22T09:54:51.044Z,49.80
2019-04-22T09:57:09.595Z,49.20
2019-04-22T09:59:43.700Z,50.20
2019-04-22T10:04:46.683Z,48.00
2019-04-22T10:07:17.629Z,46.70
2019-04-22T10:10:03.220Z,47.10
2019-04-22T10:12:19.268Z,47.10
2019-04-22T10:14:45.654Z,47.00
2019-04-22T10:17:12.336Z,44.70
2019-04-22T10:19:41.062Z,45.00
2019-04-22T10:22:19.961Z,44.60
2019-04-22T10:24:45.345Z,45.50
2019-04-22T10:27:12.920Z,44.40
2019-04-22T10:29:54.140Z,44.70
2019-04-22T10:32:20.449Z,42.90
2019-04-22T10:34:35.993Z,41.20
2019-04-22T10:37:02.076Z,40.80
2019-04-22T10:39:37.865Z,42.10
2019-04-22T10:41:56.805Z,42.60
2019-04-22T10:44:26.867Z,41.80
2019-04-22T10:46:58.050Z,41.10
2019-04-22T10:49:26.976Z,39.60
2019-04-22T10:51:55.453Z,38.60
2019-04-22T10:54:25.256Z,39.70
2019-04-22T10:56:55.081Z,39.80
2019-04-22T10:59:24.696Z,40.30
2019-04-22T11:01:54.806Z,40.00
2019-04-22T11:04:23.513Z,39.80
2019-04-22T11:06:57.703Z,39.90
2019-04-22T11:09:23.897Z,40.40
2019-04-22T11:12:01.378Z,39.80
2019-04-22T11:14:23.173Z,40.80
2019-04-22T11:16:53.363Z,41.10
2019-04-22T11:19:23.648Z,40.80
2019-04-22T11:22:03.396Z,39.10
2019-04-22T11:24:23.019Z,39.00
2019-04-22T11:26:52.756Z,38.30
2019-04-22T11:29:21.651Z,37.60
2019-04-22T11:31:52.506Z,36.40
2019-04-22T11:34:21.429Z,36.20
2019-04-22T11:36:52.593Z,37.20
2019-04-22T11:39:21.815Z,36.80
2019-04-22T11:41:51.821Z,36.70
2019-04-22T11:44:21.351Z,35.50
2019-04-22T11:46:51.544Z,36.60
2019-04-22T11:49:21.889Z,36.00
2019-04-22T11:51:51.802Z,35.30
2019-04-22T11:54:20.981Z,34.30
2019-04-22T11:56:49.673Z,35.90
2019-04-22T11:59:18.540Z,35.20
2019-04-22T12:01:49.149Z,34.90
2019-04-22T12:04:18.041Z,34.60
2019-04-22T12:06:46.593Z,34.50
2019-04-22T12:09:17.443Z,35.30
2019-04-22T12:11:46.908Z,33.40
2019-04-22T12:14:17.976Z,33.60
2019-04-22T12:16:45.647Z,34.80
2019-04-22T12:19:15.673Z,35.10
2019-04-22T12:21:44.902Z,35.70
2019-04-22T12:24:13.474Z,35.40
2019-04-22T12:26:42.461Z,35.80
2019-04-22T12:29:11.405Z,37.20
2019-04-22T12:31:41.883Z,36.10
2019-04-22T12:34:11.293Z,35.70
2019-04-22T12:36:40.415Z,37.20
2019-04-22T12:39:09.801Z,38.10
2019-04-22T12:41:40.541Z,37.70
2019-04-22T12:44:09.507Z,35.80
2019-04-22T12:46:38.415Z,36.30
2019-04-22T12:49:08.012Z,37.60
2019-04-22T12:51:36.971Z,38.40
2019-04-22T12:54:06.836Z,38.50
2019-04-22T12:56:35.550Z,38.20
2019-04-22T12:59:05.632Z,38.20
2019-04-22T13:01:35.064Z,38.20
2019-04-22T13:04:09.108Z,38.20
2019-04-22T13:06:35.604Z,38.70
2019-04-22T13:09:06.741Z,36.80
2019-04-22T13:11:38.454Z,36.50
2019-04-22T13:14:07.291Z,37.30
2019-04-22T13:16:36.101Z,37.40
2019-04-22T13:19:11.126Z,37.80
2019-04-22T13:21:36.507Z,37.60
2019-04-22T13:24:06.950Z,37.40
2019-04-22T13:26:35.928Z,36.50
2019-04-22T13:29:05.191Z,37.30
2019-04-22T13:31:34.921Z,37.40
2019-04-22T13:34:04.032Z,38.00
2019-04-22T13:36:34.627Z,37.40
2019-04-22T13:39:04.870Z,37.40
2019-04-22T13:41:41.760Z,37.10
2019-04-22T13:44:04.972Z,37.50
2019-04-22T13:46:34.116Z,37.60
2019-04-22T13:49:31.643Z,37.50
2019-04-22T13:52:19.117Z,36.00
2019-04-22T13:56:55.099Z,36.70
2019-04-22T13:59:13.571Z,36.80
2019-04-22T14:01:40.915Z,38.00
2019-04-22T14:04:14.487Z,37.40
2019-04-22T14:06:43.014Z,37.00
2019-04-22T14:09:11.725Z,37.30
2019-04-22T14:11:49.304Z,37.00
2019-04-22T14:14:10.952Z,38.00
2019-04-22T14:16:40.851Z,36.60
2019-04-22T14:19:13.941Z,36.50
2019-04-22T14:21:44.382Z,37.20
2019-04-22T14:24:14.326Z,37.60
2019-04-22T14:26:57.000Z,37.70
2019-04-22T14:29:13.659Z,37.40
2019-04-22T14:31:44.520Z,37.30
2019-04-22T14:34:13.842Z,37.80
2019-04-22T14:36:43.657Z,37.00
2019-04-22T14:39:15.581Z,37.40
2019-04-22T14:42:04.802Z,37.20
2019-04-22T14:49:36.672Z,37.40
2019-04-22T14:52:13.272Z,37.70
2019-04-22T14:54:31.287Z,38.20
2019-04-22T14:56:46.679Z,38.10
2019-04-22T14:59:16.603Z,38.00
2019-04-22T15:01:45.665Z,37.90
2019-04-22T15:04:15.208Z,38.80
2019-04-22T15:06:47.999Z,38.40
2019-04-22T15:09:14.586Z,39.20
2019-04-22T15:11:54.838Z,38.50
2019-04-22T15:14:15.084Z,38.10
2019-04-22T15:16:55.159Z,38.50
2019-04-22T15:19:25.685Z,38.40
2019-04-22T15:21:54.675Z,37.80
2019-04-22T15:24:25.174Z,37.50
2019-04-22T15:26:56.299Z,37.70
2019-04-22T15:29:25.541Z,38.30
2019-04-22T15:31:55.694Z,37.80
2019-04-22T15:34:24.977Z,37.90
2019-04-22T15:36:54.053Z,37.40
2019-04-22T15:39:23.243Z,38.10
2019-04-22T15:42:00.399Z,38.10
2019-04-22T15:44:22.104Z,38.40
2019-04-22T15:46:51.009Z,38.20
2019-04-22T15:49:20.122Z,38.30
2019-04-22T15:51:49.096Z,38.50
2019-04-22T15:54:17.645Z,39.20
2019-04-22T15:56:46.649Z,38.20
2019-04-22T15:59:30.201Z,38.20
2019-04-22T16:01:46.774Z,38.20
2019-04-22T16:04:16.986Z,38.50
2019-04-22T16:06:49.378Z,39.20
2019-04-22T16:09:18.262Z,38.80
2019-04-22T16:11:47.749Z,38.80
2019-04-22T16:14:24.038Z,38.90
2019-04-22T16:16:48.267Z,38.40
2019-04-22T16:19:17.038Z,38.00
2019-04-22T16:21:53.025Z,38.30
2019-04-22T16:24:18.191Z,38.50
2019-04-22T16:26:53.866Z,38.30
2019-04-22T16:29:23.325Z,38.30
2019-04-22T16:31:53.467Z,38.50
2019-04-22T16:34:23.888Z,37.80
2019-04-22T16:36:52.870Z,37.70
2019-04-22T16:39:26.935Z,37.80
2019-04-22T16:41:56.971Z,37.70
2019-04-22T16:44:27.517Z,38.10
2019-04-22T16:46:57.307Z,38.20
2019-04-22T16:49:27.621Z,37.90
2019-04-22T16:52:00.296Z,38.40
2019-04-22T16:54:36.647Z,39.00
2019-04-22T16:57:06.112Z,39.40
2019-04-22T16:59:35.139Z,39.10
2019-04-22T17:02:24.626Z,39.50
2019-04-22T17:05:02.929Z,39.00
2019-04-22T17:07:31.881Z,39.20
2019-04-22T17:10:01.804Z,39.70
2019-04-22T17:12:40.844Z,40.20
2019-04-22T17:15:07.284Z,39.60
2019-04-22T17:17:32.765Z,39.80
2019-04-22T17:20:02.913Z,39.60
2019-04-22T17:22:33.465Z,40.80
2019-04-22T17:25:02.654Z,43.10
2019-04-22T17:27:34.424Z,44.30
2019-04-22T17:30:06.337Z,45.30
2019-04-22T17:32:35.654Z,46.50
2019-04-22T17:35:08.334Z,46.90
2019-04-22T17:40:48.778Z,47.90
2019-04-22T17:43:36.097Z,48.00
2019-04-22T17:48:57.517Z,49.80
2019-04-22T17:51:32.893Z,50.80
2019-04-22T17:53:58.179Z,50.00
2019-04-22T17:56:31.482Z,52.80
2019-04-22T17:59:18.698Z,54.60
2019-04-22T18:01:29.504Z,50.90
2019-04-22T18:03:47.591Z,51.30
2019-04-22T18:06:44.016Z,55.50
2019-04-22T18:09:14.512Z,54.50
2019-04-22T18:11:49.632Z,51.50
2019-04-22T18:14:34.969Z,52.50
2019-04-22T18:16:53.565Z,52.10
2019-04-22T18:19:21.132Z,52.90
2019-04-22T18:21:47.740Z,51.90
2019-04-22T18:24:15.671Z,53.80
2019-04-22T18:29:48.425Z,52.20
2019-04-22T18:32:16.829Z,59.20
2019-04-22T18:34:49.523Z,53.90
2019-04-22T18:37:21.815Z,59.70
2019-04-22T18:40:00.198Z,59.80
2019-04-22T18:42:24.180Z,55.10
2019-04-22T18:45:06.801Z,55.10
2019-04-22T18:47:25.114Z,54.20
2019-04-22T18:49:55.050Z,54.10
2019-04-22T18:52:48.750Z,55.70
2019-04-22T18:55:31.937Z,54.50
2019-04-22T18:58:16.382Z,53.60
2019-04-22T19:00:34.356Z,53.20
2019-04-22T19:03:11.187Z,53.10
2019-04-22T19:05:54.356Z,53.40
2019-04-22T19:08:36.884Z,53.30
2019-04-22T19:11:02.525Z,53.20
2019-04-22T19:16:17.222Z,53.20
2019-04-22T19:21:02.811Z,53.90
2019-04-22T19:23:44.915Z,52.70
2019-04-22T19:26:02.800Z,53.30
2019-04-22T19:28:34.456Z,53.50
2019-04-22T19:31:10.740Z,53.30
2019-04-22T19:33:35.505Z,53.50
2019-04-22T19:36:07.517Z,53.70
2019-04-22T19:38:26.358Z,54.50
2019-04-22T19:41:13.422Z,53.60
2019-04-22T19:43:38.945Z,53.70
2019-04-22T19:46:02.092Z,53.80
2019-04-22T19:48:46.513Z,53.80
2019-04-22T19:51:12.775Z,53.80
2019-04-22T19:53:42.056Z,53.60
2019-04-22T19:56:06.158Z,53.60
2019-04-22T19:58:35.972Z,53.50
2019-04-22T20:01:16.312Z,53.60
2019-04-22T20:04:13.160Z,53.50
2019-04-22T20:06:39.593Z,53.60
2019-04-22T20:09:13.970Z,53.90
2019-04-22T20:11:38.617Z,54.00
2019-04-22T20:14:12.858Z,54.50
2019-04-22T20:16:39.124Z,54.40
2019-04-22T20:19:19.257Z,54.30
2019-04-22T20:21:50.144Z,54.20
2019-04-22T20:24:04.401Z,54.70
2019-04-22T20:26:51.258Z,54.50
2019-04-22T20:29:20.907Z,54.50
2019-04-22T20:31:49.574Z,55.30
2019-04-22T20:34:22.296Z,55.10
2019-04-22T20:36:57.038Z,55.20
2019-04-22T20:39:12.250Z,55.30
2019-04-22T20:41:47.918Z,55.50
2019-04-22T20:44:26.061Z,55.70
2019-04-22T20:46:52.141Z,56.00
2019-04-22T20:49:21.790Z,55.90
2019-04-22T20:52:00.315Z,56.10
2019-04-22T20:54:22.868Z,56.40
2019-04-22T20:56:51.932Z,56.40
2019-04-22T20:59:24.318Z,56.50
2019-04-22T21:01:55.178Z,56.50
2019-04-22T21:04:21.232Z,57.00
2019-04-22T21:06:55.962Z,56.90
2019-04-22T21:09:34.655Z,57.00
2019-04-22T21:12:02.668Z,57.10
2019-04-22T21:14:36.422Z,57.20
2019-04-22T21:17:08.041Z,57.10
2019-04-22T21:19:43.353Z,57.30
2019-04-22T21:22:10.879Z,57.60
2019-04-22T21:24:40.217Z,57.50
2019-04-22T21:27:14.065Z,57.50
2019-04-22T21:29:42.495Z,57.70
2019-04-22T21:32:13.679Z,57.80
2019-04-22T21:34:51.045Z,57.70
2019-04-22T21:37:20.909Z,57.90
2019-04-22T21:39:40.722Z,58.10
2019-04-22T21:42:14.238Z,58.10
2019-04-22T21:44:44.003Z,58.30
2019-04-22T21:50:21.402Z,58.50
2019-04-22T21:52:40.459Z,58.70
2019-04-22T21:55:17.695Z,58.70
2019-04-22T21:58:05.268Z,59.00
2019-04-22T22:03:23.599Z,58.90
2019-04-22T22:05:44.333Z,59.00
2019-04-22T22:08:27.525Z,59.10
2019-04-22T22:10:52.265Z,59.20
2019-04-22T22:13:25.368Z,59.20
2019-04-22T22:15:52.145Z,59.20
2019-04-22T22:18:20.029Z,59.30
2019-04-22T22:21:12.643Z,59.50
2019-04-22T22:25:52.271Z,59.50
2019-04-22T22:28:42.043Z,59.40
2019-04-22T22:31:05.007Z,59.40
2019-04-22T22:33:30.120Z,59.70
2019-04-22T22:35:58.050Z,59.60
2019-04-22T22:38:27.253Z,59.50
2019-04-22T22:40:40.443Z,59.70
2019-04-22T22:46:21.728Z,59.80
2019-04-22T22:48:58.844Z,59.40
2019-04-22T22:51:40.314Z,59.50
2019-04-22T22:54:01.832Z,59.90
2019-04-22T22:56:38.540Z,59.50
2019-04-22T22:59:00.245Z,59.80
2019-04-22T23:01:37.396Z,59.90
2019-04-22T23:04:03.663Z,60.30
2019-04-22T23:06:38.390Z,60.30
2019-04-22T23:09:04.255Z,60.00
2019-04-22T23:11:52.582Z,60.30
2019-04-22T23:14:02.844Z,60.00
2019-04-22T23:16:22.117Z,60.20
2019-04-22T23:19:01.765Z,60.20
2019-04-22T23:21:39.778Z,60.30
2019-04-22T23:24:21.419Z,60.20
2019-04-22T23:27:04.320Z,60.40
2019-04-22T23:29:32.309Z,60.10
2019-04-22T23:32:05.557Z,60.50
2019-04-22T23:34:41.165Z,60.50
2019-04-22T23:37:14.853Z,60.70
2019-04-22T23:39:54.745Z,60.70
2019-04-22T23:42:22.158Z,60.60
2019-04-22T23:44:49.600Z,60.70
2019-04-22T23:47:14.877Z,60.40
2019-04-22T23:49:53.573Z,60.50
2019-04-22T23:52:30.360Z,60.70
2019-04-22T23:54:58.523Z,60.40
2019-04-22T23:57:31.380Z,60.40
